createdAt,value
2018-04-27T00:02:02.029Z,12.30
2018-04-27T00:04:28.222Z,13.77
2018-04-27T00:06:54.450Z,13.50
2018-04-27T00:09:20.705Z,13.50
2018-04-27T00:11:46.965Z,13.50
2018-04-27T00:14:13.198Z,13.50
2018-04-27T00:16:39.456Z,13.37
2018-04-27T00:19:06.414Z,12.97
2018-04-27T00:21:32.708Z,12.00
2018-04-27T00:23:59.001Z,11.90
2018-04-27T00:26:25.234Z,12.30
2018-04-27T00:28:51.460Z,13.27
2018-04-27T00:31:17.625Z,14.27
2018-04-27T00:33:44.680Z,12.23
2018-04-27T00:36:11.616Z,12.97
2018-04-27T00:38:38.639Z,13.00
2018-04-27T00:41:04.825Z,13.93
2018-04-27T00:43:31.092Z,12.63
2018-04-27T00:45:58.029Z,13.53
2018-04-27T00:48:24.261Z,14.77
2018-04-27T00:50:50.538Z,13.50
2018-04-27T00:53:17.477Z,12.87
2018-04-27T00:55:44.480Z,14.20
2018-04-27T00:58:10.700Z,13.10
2018-04-27T01:00:36.965Z,12.07
2018-04-27T01:03:03.192Z,11.10
2018-04-27T01:05:29.427Z,13.80
2018-04-27T01:07:55.647Z,12.60
2018-04-27T01:10:22.624Z,14.37
2018-04-27T01:12:48.849Z,13.23
2018-04-27T01:15:15.795Z,12.00
2018-04-27T01:17:42.768Z,10.83
2018-04-27T01:20:09.025Z,12.27
2018-04-27T01:22:35.265Z,11.17
2018-04-27T01:25:01.550Z,11.73
2018-04-27T01:27:27.721Z,13.17
2018-04-27T01:29:55.925Z,13.37
2018-04-27T01:32:22.932Z,14.10
2018-04-27T01:34:49.125Z,12.27
2018-04-27T01:37:15.347Z,12.23
2018-04-27T01:39:41.604Z,12.50
2018-04-27T01:42:08.561Z,12.73
2018-04-27T01:44:34.809Z,13.47
2018-04-27T01:47:01.084Z,13.83
2018-04-27T01:49:27.306Z,13.63
2018-04-27T01:51:53.561Z,15.30
2018-04-27T01:54:19.917Z,14.23
2018-04-27T01:56:46.137Z,14.30
2018-04-27T01:59:13.392Z,13.87
2018-04-27T02:01:39.636Z,13.67
2018-04-27T02:04:05.915Z,11.90
2018-04-27T02:06:32.157Z,13.43
2018-04-27T02:08:58.360Z,11.87
2018-04-27T02:11:24.637Z,12.77
2018-04-27T02:13:50.820Z,15.57
2018-04-27T02:16:17.055Z,16.03
2018-04-27T02:18:43.308Z,13.70
2018-04-27T02:21:09.640Z,13.23
2018-04-27T02:23:35.794Z,15.50
2018-04-27T02:26:02.107Z,13.33
2018-04-27T02:28:28.267Z,10.20
2018-04-27T02:30:55.265Z,12.77
2018-04-27T02:33:22.220Z,17.53
2018-04-27T02:35:48.424Z,15.03
2018-04-27T02:38:14.620Z,16.73
2018-04-27T02:40:41.524Z,13.00
2018-04-27T02:43:07.668Z,14.03
2018-04-27T02:45:34.649Z,13.97
2018-04-27T02:48:00.905Z,15.57
2018-04-27T02:50:27.115Z,16.27
2018-04-27T02:52:53.260Z,17.43
2018-04-27T02:55:19.495Z,15.30
2018-04-27T02:57:45.752Z,16.00
2018-04-27T03:00:11.988Z,17.33
2018-04-27T03:02:38.948Z,19.53
2018-04-27T03:05:05.911Z,18.20
2018-04-27T03:07:32.139Z,17.53
2018-04-27T03:09:58.353Z,19.00
2018-04-27T03:12:25.336Z,22.73
2018-04-27T03:14:51.505Z,20.30
2018-04-27T03:17:18.527Z,19.63
2018-04-27T03:19:44.683Z,19.63
2018-04-27T03:22:12.755Z,21.03
2018-04-27T03:24:39.777Z,24.20
2018-04-27T03:27:05.994Z,23.47
2018-04-27T03:29:32.240Z,22.37
2018-04-27T03:31:58.468Z,22.43
2018-04-27T03:34:24.781Z,20.67
2018-04-27T03:36:50.951Z,21.23
2018-04-27T03:39:17.924Z,21.73
2018-04-27T03:41:44.213Z,23.10
2018-04-27T03:44:10.395Z,24.67
2018-04-27T03:46:36.722Z,22.13
2018-04-27T03:49:02.899Z,22.20
2018-04-27T03:51:29.641Z,23.50
2018-04-27T03:53:57.168Z,24.70
2018-04-27T03:56:23.673Z,25.00
2018-04-27T03:58:49.919Z,25.83
2018-04-27T04:01:29.181Z,26.13
2018-04-27T04:04:07.692Z,25.67
2018-04-27T04:06:33.951Z,27.17
2018-04-27T04:09:01.660Z,27.20
2018-04-27T04:11:27.908Z,28.03
2018-04-27T04:13:54.091Z,27.10
2018-04-27T04:16:20.412Z,27.73
2018-04-27T04:18:46.597Z,24.30
2018-04-27T04:21:12.843Z,28.20
2018-04-27T04:23:39.093Z,27.67
2018-04-27T04:26:06.071Z,27.50
2018-04-27T04:28:32.252Z,29.00
2018-04-27T04:30:59.216Z,28.30
2018-04-27T04:33:25.451Z,26.20
2018-04-27T04:35:52.701Z,27.20
2018-04-27T04:38:18.860Z,27.13
2018-04-27T04:40:45.116Z,26.00
2018-04-27T04:43:11.476Z,27.57
2018-04-27T04:45:38.408Z,26.07
2018-04-27T04:48:05.352Z,25.20
2018-04-27T04:50:32.415Z,28.97
2018-04-27T04:52:58.588Z,28.10
2018-04-27T04:55:24.875Z,27.20
2018-04-27T04:57:51.399Z,27.30
2018-04-27T05:00:18.425Z,30.00
2018-04-27T05:02:44.833Z,29.97
2018-04-27T05:05:11.736Z,28.10
2018-04-27T05:07:38.008Z,27.17
2018-04-27T05:10:04.219Z,29.50
2018-04-27T05:12:30.499Z,29.33
2018-04-27T05:14:57.407Z,29.00
2018-04-27T05:17:23.560Z,28.03
2018-04-27T05:19:53.746Z,28.20
2018-04-27T05:22:19.992Z,27.07
2018-04-27T05:24:46.188Z,28.77
2018-04-27T05:27:12.484Z,27.37
2018-04-27T05:29:39.395Z,26.33
2018-04-27T05:32:05.659Z,27.53
2018-04-27T05:34:32.583Z,27.00
2018-04-27T05:36:58.889Z,25.77
2018-04-27T05:39:25.082Z,26.50
2018-04-27T05:41:51.324Z,26.57
2018-04-27T05:44:17.580Z,28.20
2018-04-27T05:46:43.832Z,26.67
2018-04-27T05:49:10.127Z,25.67
2018-04-27T05:51:36.284Z,24.40
2018-04-27T05:54:02.564Z,23.47
2018-04-27T05:56:28.784Z,22.17
2018-04-27T05:58:55.053Z,21.90
2018-04-27T06:01:21.284Z,22.67
2018-04-27T06:03:59.763Z,19.93
2018-04-27T06:06:25.935Z,22.37
2018-04-27T06:08:52.160Z,22.37
2018-04-27T06:11:19.444Z,21.40
2018-04-27T06:13:46.439Z,20.40
2018-04-27T06:16:12.663Z,20.67
2018-04-27T06:18:39.080Z,19.13
2018-04-27T06:21:05.328Z,21.23
2018-04-27T06:23:31.576Z,20.80
2018-04-27T06:25:57.831Z,18.00
2018-04-27T06:28:24.860Z,18.60
2018-04-27T06:30:51.015Z,17.17
2018-04-27T06:33:17.985Z,17.43
2018-04-27T06:35:44.252Z,15.13
2018-04-27T06:38:10.475Z,15.73
2018-04-27T06:40:36.771Z,16.60
2018-04-27T06:43:02.963Z,15.10
2018-04-27T06:45:29.936Z,13.87
2018-04-27T06:47:56.156Z,13.83
2018-04-27T06:50:23.404Z,14.20
2018-04-27T06:52:50.527Z,15.73
2018-04-27T06:55:16.740Z,15.33
2018-04-27T06:57:42.996Z,13.67
2018-04-27T07:00:09.936Z,11.97
2018-04-27T07:02:36.867Z,12.80
2018-04-27T07:05:03.212Z,11.80
2018-04-27T07:07:29.368Z,11.33
2018-04-27T07:09:55.652Z,14.30
2018-04-27T07:12:21.852Z,13.43
2018-04-27T07:14:48.129Z,12.80
2018-04-27T07:17:15.012Z,14.27
2018-04-27T07:19:41.184Z,11.50
2018-04-27T07:22:22.540Z,10.57
2018-04-27T07:24:50.856Z,10.90
2018-04-27T07:27:17.904Z,10.90
2018-04-27T07:29:44.812Z,11.23
2018-04-27T07:32:11.969Z,11.70
2018-04-27T07:34:38.294Z,11.43
2018-04-27T07:37:04.584Z,11.03
2018-04-27T07:39:30.868Z,10.93
2018-04-27T07:41:57.035Z,9.80
2018-04-27T07:44:23.283Z,10.80
2018-04-27T07:46:49.632Z,10.80
2018-04-27T07:49:15.867Z,9.50
2018-04-27T07:51:42.004Z,10.00
2018-04-27T07:54:08.270Z,9.60
2018-04-27T07:56:36.646Z,9.83
2018-04-27T07:59:05.529Z,10.57
2018-04-27T08:01:32.499Z,9.40
2018-04-27T08:03:58.787Z,9.97
2018-04-27T08:06:25.049Z,9.60
2018-04-27T08:08:52.019Z,9.70
2018-04-27T08:11:18.247Z,10.17
2018-04-27T08:13:45.140Z,9.47
2018-04-27T08:16:11.307Z,10.20
2018-04-27T08:18:37.675Z,10.00
2018-04-27T08:21:04.943Z,9.73
2018-04-27T08:23:31.148Z,9.47
2018-04-27T08:25:57.376Z,10.50
2018-04-27T08:28:23.546Z,8.80
2018-04-27T08:30:51.676Z,9.93
2018-04-27T08:33:18.574Z,8.57
2018-04-27T08:35:45.532Z,9.27
2018-04-27T08:38:11.788Z,9.80
2018-04-27T08:40:38.011Z,9.97
2018-04-27T08:43:04.247Z,9.03
2018-04-27T08:45:30.422Z,10.17
2018-04-27T08:47:57.484Z,8.80
2018-04-27T08:50:23.849Z,8.90
2018-04-27T08:52:49.968Z,8.20
2018-04-27T08:55:16.241Z,10.20
2018-04-27T08:57:42.459Z,9.23
2018-04-27T09:00:08.696Z,7.63
2018-04-27T09:02:34.923Z,8.00
2018-04-27T09:05:01.256Z,8.10
2018-04-27T09:07:27.680Z,8.10
2018-04-27T09:09:53.865Z,7.20
2018-04-27T09:12:20.115Z,8.63
2018-04-27T09:14:46.341Z,8.70
2018-04-27T09:17:12.644Z,7.83
2018-04-27T09:19:38.814Z,7.80
2018-04-27T09:22:05.103Z,6.70
2018-04-27T09:24:31.324Z,6.07
2018-04-27T09:26:57.605Z,5.53
2018-04-27T09:29:23.787Z,5.30
2018-04-27T09:31:49.982Z,5.00
2018-04-27T09:34:16.908Z,5.27
2018-04-27T09:36:43.213Z,6.33
2018-04-27T09:39:09.379Z,6.20
2018-04-27T09:41:36.348Z,6.70
2018-04-27T09:44:03.329Z,5.50
2018-04-27T09:46:29.531Z,7.00
2018-04-27T09:48:56.509Z,7.40
2018-04-27T09:51:22.770Z,6.10
2018-04-27T09:53:48.963Z,6.47
2018-04-27T09:56:15.139Z,6.83
2018-04-27T09:58:42.131Z,6.07
2018-04-27T10:01:08.345Z,6.00
2018-04-27T10:03:34.601Z,4.60
2018-04-27T10:06:00.866Z,5.63
2018-04-27T10:08:27.776Z,5.40
2018-04-27T10:10:54.020Z,5.07
2018-04-27T10:13:20.256Z,6.37
2018-04-27T10:15:47.540Z,5.80
2018-04-27T10:18:14.504Z,4.77
2018-04-27T10:20:40.731Z,5.10
2018-04-27T10:23:07.076Z,4.07
2018-04-27T10:25:48.276Z,4.77
2018-04-27T10:28:14.514Z,5.33
2018-04-27T10:30:40.767Z,6.10
2018-04-27T10:33:07.792Z,5.30
2018-04-27T10:35:33.982Z,5.50
2018-04-27T10:38:00.248Z,5.17
2018-04-27T10:40:26.460Z,6.50
2018-04-27T10:42:52.748Z,4.60
2018-04-27T10:45:18.954Z,4.50
2018-04-27T10:47:45.895Z,4.27
2018-04-27T10:50:12.892Z,4.47
2018-04-27T10:52:39.099Z,3.90
2018-04-27T10:55:05.355Z,3.17
2018-04-27T10:57:31.517Z,2.80
2018-04-27T10:59:57.711Z,3.17
2018-04-27T11:02:24.915Z,3.37
2018-04-27T11:04:51.824Z,2.50
2018-04-27T11:07:17.996Z,2.20
2018-04-27T11:09:44.296Z,2.50
2018-04-27T11:12:10.527Z,3.20
2018-04-27T11:14:36.702Z,3.40
2018-04-27T11:17:03.026Z,3.20
2018-04-27T11:19:29.228Z,4.63
2018-04-27T11:21:56.243Z,3.20
2018-04-27T11:24:22.401Z,4.30
2018-04-27T11:26:49.368Z,4.20
2018-04-27T11:29:15.637Z,3.10
2018-04-27T11:31:41.845Z,3.67
2018-04-27T11:34:08.091Z,3.47
2018-04-27T11:36:34.355Z,2.60
2018-04-27T11:39:01.410Z,2.40
2018-04-27T11:41:28.339Z,2.40
2018-04-27T11:43:54.600Z,3.33
2018-04-27T11:46:20.855Z,2.60
2018-04-27T11:48:47.037Z,2.70
2018-04-27T11:51:14.100Z,2.53
2018-04-27T11:53:41.237Z,2.60
2018-04-27T11:56:08.183Z,2.83
2018-04-27T11:58:35.339Z,3.10
2018-04-27T12:01:02.324Z,2.37
2018-04-27T12:03:28.521Z,2.27
2018-04-27T12:05:54.784Z,2.77
2018-04-27T12:08:21.068Z,2.50
2018-04-27T12:10:47.980Z,2.00
2018-04-27T12:13:14.283Z,2.40
2018-04-27T12:15:40.459Z,2.73
2018-04-27T12:18:07.442Z,2.10
2018-04-27T12:20:33.758Z,2.03
2018-04-27T12:23:00.077Z,2.33
2018-04-27T12:25:27.059Z,2.30
2018-04-27T12:27:53.320Z,1.97
2018-04-27T12:30:19.556Z,1.97
2018-04-27T12:32:45.797Z,2.10
2018-04-27T12:35:12.090Z,2.37
2018-04-27T12:37:38.335Z,2.50
2018-04-27T12:40:04.547Z,1.80
2018-04-27T12:42:30.772Z,1.73
2018-04-27T12:44:57.053Z,2.30
2018-04-27T12:47:23.273Z,2.50
2018-04-27T12:49:50.196Z,1.87
2018-04-27T12:52:17.476Z,2.20
2018-04-27T12:54:43.721Z,2.33
2018-04-27T12:57:09.920Z,2.07
2018-04-27T12:59:36.916Z,1.73
2018-04-27T13:02:03.221Z,2.13
2018-04-27T13:04:29.503Z,2.27
2018-04-27T13:06:55.815Z,2.23
2018-04-27T13:09:21.995Z,2.40
2018-04-27T13:11:48.980Z,1.80
2018-04-27T13:14:15.125Z,2.10
2018-04-27T13:16:41.335Z,1.83
2018-04-27T13:19:07.619Z,1.83
2018-04-27T13:21:33.903Z,2.00
2018-04-27T13:24:00.091Z,2.03
2018-04-27T13:26:26.299Z,2.00
2018-04-27T13:28:53.282Z,2.00
2018-04-27T13:31:19.443Z,2.00
2018-04-27T13:33:45.645Z,2.03
2018-04-27T13:36:11.872Z,2.50
2018-04-27T13:38:38.593Z,2.40
2018-04-27T13:41:06.133Z,2.37
2018-04-27T13:43:32.339Z,2.23
2018-04-27T13:45:58.619Z,1.87
2018-04-27T13:48:24.848Z,2.30
2018-04-27T13:50:51.597Z,1.90
2018-04-27T13:53:17.851Z,1.40
2018-04-27T13:55:44.084Z,2.20
2018-04-27T13:58:11.943Z,2.43
2018-04-27T14:00:38.268Z,2.10
2018-04-27T14:03:04.494Z,2.20
2018-04-27T14:05:30.731Z,2.30
2018-04-27T14:07:56.811Z,2.30
2018-04-27T14:10:22.946Z,2.60
2018-04-27T14:12:49.097Z,2.03
2018-04-27T14:15:15.344Z,2.20
2018-04-27T14:17:41.657Z,2.30
2018-04-27T14:20:07.846Z,2.20
2018-04-27T14:22:34.125Z,1.80
2018-04-27T14:25:00.298Z,2.00
2018-04-27T14:27:26.500Z,1.70
2018-04-27T14:29:52.713Z,2.00
2018-04-27T14:32:18.962Z,1.83
2018-04-27T14:34:45.865Z,1.80
2018-04-27T14:37:12.031Z,1.97
2018-04-27T14:39:39.474Z,1.80
2018-04-27T14:42:05.627Z,1.60
2018-04-27T14:44:31.808Z,1.60
2018-04-27T14:46:58.008Z,1.70
2018-04-27T14:49:24.154Z,2.10
2018-04-27T14:51:50.306Z,1.50
2018-04-27T14:54:16.436Z,1.57
2018-04-27T14:56:42.589Z,1.40
2018-04-27T14:59:09.122Z,1.53
2018-04-27T15:01:35.278Z,1.50
2018-04-27T15:04:01.412Z,1.70
2018-04-27T15:06:27.569Z,1.50
2018-04-27T15:08:53.804Z,1.40
2018-04-27T15:11:19.927Z,1.53
2018-04-27T15:13:46.230Z,1.90
2018-04-27T15:16:12.406Z,2.13
2018-04-27T15:18:38.558Z,1.67
2018-04-27T15:21:04.798Z,1.50
2018-04-27T15:23:30.971Z,1.50
2018-04-27T15:25:57.086Z,1.70
2018-04-27T15:28:23.238Z,1.63
2018-04-27T15:30:49.500Z,2.43
2018-04-27T15:33:16.429Z,2.37
2018-04-27T15:35:42.671Z,1.70
2018-04-27T15:38:09.683Z,1.90
2018-04-27T15:40:35.880Z,1.90
2018-04-27T15:43:02.592Z,1.73
2018-04-27T15:45:28.769Z,2.10
2018-04-27T15:47:54.936Z,1.90
2018-04-27T15:50:21.151Z,1.73
2018-04-27T15:52:47.307Z,1.70
2018-04-27T15:55:13.531Z,1.87
2018-04-27T15:57:39.670Z,1.40
2018-04-27T16:00:05.913Z,2.20
2018-04-27T16:02:32.075Z,2.33
2018-04-27T16:04:58.292Z,2.20
2018-04-27T16:07:25.247Z,2.40
2018-04-27T16:09:51.606Z,2.10
2018-04-27T16:12:17.747Z,1.83
2018-04-27T16:14:44.216Z,2.30
2018-04-27T16:17:10.332Z,1.87
2018-04-27T16:19:36.521Z,1.50
2018-04-27T16:22:03.280Z,1.50
2018-04-27T16:24:29.447Z,1.80
2018-04-27T16:26:58.078Z,2.07
2018-04-27T16:29:24.256Z,1.60
2018-04-27T16:31:51.182Z,1.80
2018-04-27T16:34:17.300Z,1.93
2018-04-27T16:36:43.751Z,1.60
2018-04-27T16:39:09.862Z,1.97
2018-04-27T16:41:36.071Z,2.13
2018-04-27T16:44:04.930Z,2.17
2018-04-27T16:46:31.166Z,1.97
2018-04-27T16:48:57.287Z,2.00
2018-04-27T16:51:24.734Z,2.00
2018-04-27T16:53:51.619Z,1.90
2018-04-27T16:56:17.733Z,2.43
2018-04-27T16:58:44.605Z,1.83
2018-04-27T17:01:10.727Z,1.70
2018-04-27T17:03:37.626Z,2.13
2018-04-27T17:06:03.795Z,2.30
2018-04-27T17:08:33.402Z,1.60
2018-04-27T17:10:59.536Z,2.20
2018-04-27T17:13:25.724Z,1.90
2018-04-27T17:15:51.843Z,2.00
2018-04-27T17:18:19.082Z,2.73
2018-04-27T17:20:46.105Z,1.80
2018-04-27T17:23:13.814Z,2.20
2018-04-27T17:25:39.938Z,2.40
2018-04-27T17:28:06.066Z,2.03
2018-04-27T17:30:32.355Z,2.53
2018-04-27T17:32:58.737Z,2.50
2018-04-27T17:35:25.059Z,2.20
2018-04-27T17:37:51.197Z,2.03
2018-04-27T17:40:17.671Z,2.30
2018-04-27T17:42:46.487Z,2.23
2018-04-27T17:45:15.382Z,2.13
2018-04-27T17:47:44.124Z,1.87
2018-04-27T17:50:14.129Z,2.07
2018-04-27T19:02:46.939Z,4.97
2018-04-27T19:05:13.114Z,4.00
2018-04-27T19:07:39.827Z,3.70
2018-04-27T19:10:06.109Z,2.77
2018-04-27T19:12:33.519Z,5.73
2018-04-27T19:14:59.746Z,4.63
2018-04-27T19:17:29.876Z,2.50
2018-04-27T19:20:02.944Z,2.13
2018-04-27T19:22:32.716Z,3.80
2018-04-27T19:25:01.607Z,2.63
2018-04-27T19:27:27.726Z,2.40
2018-04-27T19:29:53.855Z,2.70
2018-04-27T19:32:20.009Z,2.30
2018-04-27T19:34:46.206Z,2.90
2018-04-27T19:37:12.416Z,2.43
2018-04-27T19:39:39.449Z,2.33
2018-04-27T19:42:06.494Z,2.43
2018-04-27T19:44:32.718Z,2.83
2018-04-27T19:46:58.914Z,2.60
2018-04-27T19:49:25.138Z,2.50
2018-04-27T19:51:51.278Z,3.13
2018-04-27T19:54:17.613Z,2.93
2018-04-27T19:56:45.856Z,3.20
2018-04-27T19:59:14.479Z,2.80
2018-04-27T20:01:41.858Z,3.77
2018-04-27T20:04:08.301Z,3.03
2018-04-27T20:06:35.434Z,5.00
2018-04-27T20:09:02.384Z,2.97
2018-04-27T20:11:29.321Z,3.10
2018-04-27T20:13:56.028Z,3.33
2018-04-27T20:16:34.460Z,3.50
2018-04-27T20:19:00.568Z,3.47
2018-04-27T20:21:27.427Z,3.23
2018-04-27T20:23:54.352Z,4.70
2018-04-27T20:26:20.475Z,4.17
2018-04-27T20:28:46.605Z,4.10
2018-04-27T20:31:12.746Z,4.67
2018-04-27T20:33:39.353Z,3.87
2018-04-27T20:36:05.446Z,4.87
2018-04-27T20:38:32.422Z,3.70
2018-04-27T20:41:05.639Z,2.90
2018-04-27T20:43:31.756Z,3.20
2018-04-27T20:45:57.874Z,3.13
2018-04-27T20:48:24.981Z,3.13
2018-04-27T20:50:51.200Z,3.90
2018-04-27T20:53:17.351Z,2.90
2018-04-27T20:55:43.526Z,3.13
2018-04-27T20:58:10.507Z,3.13
2018-04-27T21:00:39.421Z,3.50
2018-04-27T21:03:05.574Z,4.00
2018-04-27T21:05:31.702Z,4.17
2018-04-27T21:07:57.892Z,3.90
2018-04-27T21:10:29.025Z,3.90
2018-04-27T21:12:55.199Z,3.77
2018-04-27T21:15:21.321Z,4.30
2018-04-27T21:17:48.520Z,4.20
2018-04-27T21:20:15.438Z,4.07
2018-04-27T21:22:41.591Z,4.47
2018-04-27T21:25:07.914Z,3.40
2018-04-27T21:27:36.078Z,4.10
2018-04-27T21:30:02.291Z,4.60
2018-04-27T21:32:28.568Z,4.20
2018-04-27T21:34:54.742Z,4.53
2018-04-27T21:37:20.947Z,4.33
2018-04-27T21:39:47.145Z,4.40
2018-04-27T21:42:13.274Z,4.07
2018-04-27T21:44:45.251Z,4.70
2018-04-27T21:47:23.720Z,4.87
2018-04-27T21:49:49.947Z,4.67
2018-04-27T21:52:25.872Z,4.10
2018-04-27T21:54:52.001Z,4.00
2018-04-27T21:57:18.233Z,4.97
2018-04-27T21:59:45.349Z,4.17
2018-04-27T22:02:12.351Z,4.23
2018-04-27T22:04:38.507Z,4.30
2018-04-27T22:07:05.707Z,4.23
2018-04-27T22:09:43.980Z,5.27
2018-04-27T22:12:10.331Z,4.43
2018-04-27T22:14:36.511Z,4.70
2018-04-27T22:17:02.642Z,5.00
2018-04-27T22:19:32.746Z,5.43
2018-04-27T22:21:58.929Z,4.40
2018-04-27T22:24:25.167Z,4.10
2018-04-27T22:27:06.413Z,4.20
2018-04-27T22:29:32.611Z,4.67
2018-04-27T22:32:01.370Z,4.40
2018-04-27T22:34:28.457Z,5.77
2018-04-27T22:36:54.643Z,4.47
2018-04-27T22:39:29.779Z,4.83
2018-04-27T22:41:56.841Z,4.87
2018-04-27T22:44:23.994Z,4.57
2018-04-27T22:46:53.018Z,4.90
2018-04-27T22:49:19.240Z,4.63
2018-04-27T22:51:45.373Z,4.90
2018-04-27T22:54:31.450Z,5.30
2018-04-27T22:56:59.584Z,4.57
2018-04-27T22:59:25.877Z,5.30
2018-04-27T23:01:52.070Z,5.80
2018-04-27T23:04:18.486Z,4.90
2018-04-27T23:06:51.596Z,4.80
2018-04-27T23:09:17.748Z,5.17
2018-04-27T23:11:43.930Z,4.83
2018-04-27T23:14:14.690Z,5.20
2018-04-27T23:16:58.678Z,6.20
2018-04-27T23:19:24.832Z,4.43
2018-04-27T23:21:51.971Z,4.90
2018-04-27T23:24:18.131Z,4.67
2018-04-27T23:26:45.090Z,5.00
2018-04-27T23:29:11.297Z,4.90
2018-04-27T23:31:39.476Z,4.60
2018-04-27T23:34:06.400Z,4.90
2018-04-27T23:36:32.536Z,4.60
2018-04-27T23:38:58.690Z,4.80
2018-04-27T23:41:24.842Z,5.10
2018-04-27T23:43:51.063Z,5.00
2018-04-27T23:46:21.179Z,4.40
2018-04-27T23:48:47.407Z,4.60
2018-04-27T23:51:13.586Z,4.20
2018-04-27T23:53:39.717Z,4.70
2018-04-27T23:56:07.796Z,4.70
2018-04-27T23:58:33.931Z,5.80
